VTD535 UWSG-UWSG
Flight info
| Callsign | VTD535 |
|---|---|
| Flight time | 0h 0m |
| Altitude | 3000 |
| Route | UWSG/26 RA/A040 |
| Aircraft | C172/L-S/C |
Departure
| Time | 2026-04-26 12:45 |
|---|---|
| Airport | Gagarin International Airport (UWSG) |
Arrival
| Time | 2026-04-26 12:46 |
|---|---|
| Airport | Gagarin International Airport (UWSG) |
| Time | Latitude | Longitude | Altitude | Speed | Heading |
|---|---|---|---|---|---|
| 2026-04-26 12:32 | 51.64782 | 46.06214 | 444 ft | 0 kts | 205° |
| 2026-04-26 12:42 | 51.64781 | 46.06213 | 444 ft | 2 kts | 194° |
| 2026-04-26 12:43 | 51.64759 | 46.06261 | 445 ft | 10 kts | 115° |
| 2026-04-26 12:43 | 51.64708 | 46.06412 | 444 ft | 18 kts | 120° |
| 2026-04-26 12:43 | 51.64638 | 46.06616 | 444 ft | 21 kts | 120° |
| 2026-04-26 12:43 | 51.64571 | 46.06799 | 454 ft | 8 kts | 161° |
| 2026-04-26 12:44 | 51.64566 | 46.06800 | 454 ft | 0 kts | 172° |
| 2026-04-26 12:44 | 51.64526 | 46.06802 | 452 ft | 11 kts | 195° |
| 2026-04-26 12:44 | 51.64512 | 46.06774 | 452 ft | 0 kts | 261° |
| 2026-04-26 12:45 | 51.64507 | 46.06550 | 448 ft | 50 kts | 265° |
| 2026-04-26 12:45 | 51.64509 | 46.05857 | 610 ft | 65 kts | 248° |
| 2026-04-26 12:45 | 51.64449 | 46.05157 | 870 ft | 64 kts | 245° |
| 2026-04-26 12:45 | 51.64420 | 46.04483 | 1133 ft | 59 kts | 244° |
| 2026-04-26 12:46 | 51.64356 | 46.03912 | 1439 ft | 48 kts | 239° |
| 2026-04-26 12:46 | 51.64267 | 46.03407 | 1639 ft | 43 kts | 202° |
| 2026-04-26 12:46 | 51.63875 | 46.03761 | 1576 ft | 84 kts | 155° |
| 2026-04-26 12:46 | 51.63327 | 46.04071 | 1657 ft | 83 kts | 177° |
| 2026-04-26 12:47 | 51.62728 | 46.04140 | 1565 ft | 88 kts | 181° |
| 2026-04-26 12:47 | 51.62146 | 46.04442 | 1500 ft | 95 kts | 146° |
| 2026-04-26 12:47 | 51.61954 | 46.05557 | 1353 ft | 118 kts | 97° |
| 2026-04-26 12:47 | 51.61997 | 46.06793 | 1420 ft | 105 kts | 98° |
| 2026-04-26 12:48 | 51.62023 | 46.07995 | 1479 ft | 106 kts | 98° |
| 2026-04-26 12:48 | 51.62089 | 46.09199 | 1546 ft | 107 kts | 93° |
| 2026-04-26 12:48 | 51.62199 | 46.10421 | 1559 ft | 112 kts | 91° |
| 2026-04-26 12:48 | 51.62629 | 46.11551 | 1505 ft | 125 kts | 38° |
| 2026-04-26 12:49 | 51.63444 | 46.11726 | 1410 ft | 110 kts | 342° |
| 2026-04-26 12:49 | 51.64088 | 46.11380 | 1324 ft | 81 kts | 304° |
| 2026-04-26 12:49 | 51.64479 | 46.10764 | 1217 ft | 78 kts | 285° |
| 2026-04-26 12:49 | 51.64626 | 46.09948 | 1113 ft | 71 kts | 251° |
| 2026-04-26 12:50 | 51.64602 | 46.09199 | 923 ft | 64 kts | 250° |
| 2026-04-26 12:50 | 51.64542 | 46.08463 | 711 ft | 72 kts | 264° |
| 2026-04-26 12:50 | 51.64533 | 46.07653 | 522 ft | 72 kts | 258° |
| 2026-04-26 12:50 | 51.64523 | 46.06941 | 450 ft | 52 kts | 258° |
| 2026-04-26 12:51 | 51.64511 | 46.06311 | 495 ft | 67 kts | 253° |
| 2026-04-26 12:51 | 51.64497 | 46.05505 | 665 ft | 74 kts | 252° |
| 2026-04-26 12:51 | 51.64487 | 46.04722 | 921 ft | 66 kts | 249° |
| 2026-04-26 12:51 | 51.64479 | 46.03965 | 1129 ft | 72 kts | 251° |
| 2026-04-26 12:52 | 51.64476 | 46.03212 | 1441 ft | 66 kts | 249° |
| 2026-04-26 12:52 | 51.64428 | 46.02432 | 1465 ft | 67 kts | 231° |
| 2026-04-26 12:52 | 51.64016 | 46.02204 | 1474 ft | 70 kts | 177° |
| 2026-04-26 12:52 | 51.63493 | 46.02220 | 1513 ft | 78 kts | 185° |
| 2026-04-26 12:53 | 51.62934 | 46.02201 | 1564 ft | 86 kts | 175° |
| 2026-04-26 12:53 | 51.62454 | 46.02872 | 1555 ft | 107 kts | 124° |
| 2026-04-26 12:53 | 51.62367 | 46.04142 | 1531 ft | 115 kts | 102° |
| 2026-04-26 12:53 | 51.62338 | 46.05389 | 1521 ft | 105 kts | 109° |
| 2026-04-26 12:54 | 51.62231 | 46.06531 | 1523 ft | 103 kts | 109° |
| 2026-04-26 12:54 | 51.62197 | 46.07726 | 1491 ft | 106 kts | 103° |
| 2026-04-26 12:54 | 51.62178 | 46.08953 | 1431 ft | 108 kts | 103° |
| 2026-04-26 12:54 | 51.62147 | 46.10167 | 1387 ft | 107 kts | 104° |
| 2026-04-26 12:55 | 51.62325 | 46.11403 | 1336 ft | 122 kts | 61° |
| 2026-04-26 12:55 | 51.63065 | 46.12008 | 1265 ft | 119 kts | 5° |
| 2026-04-26 12:55 | 51.63872 | 46.12065 | 1223 ft | 102 kts | 354° |
| 2026-04-26 12:55 | 51.64429 | 46.11552 | 1126 ft | 83 kts | 291° |
| 2026-04-26 12:56 | 51.64595 | 46.10766 | 1025 ft | 71 kts | 253° |
| 2026-04-26 12:56 | 51.64572 | 46.09983 | 891 ft | 73 kts | 262° |
| 2026-04-26 12:56 | 51.64555 | 46.09172 | 715 ft | 72 kts | 261° |
| 2026-04-26 12:56 | 51.64546 | 46.08404 | 610 ft | 64 kts | 255° |
| 2026-04-26 12:57 | 51.64531 | 46.07680 | 486 ft | 62 kts | 257° |
| 2026-04-26 12:57 | 51.64516 | 46.07068 | 447 ft | 43 kts | 268° |
| 2026-04-26 12:57 | 51.64532 | 46.06799 | 451 ft | 12 kts | 345° |
| 2026-04-26 12:58 | 51.64611 | 46.06679 | 445 ft | 25 kts | 297° |
| 2026-04-26 12:58 | 51.64649 | 46.06575 | 443 ft | 15 kts | 295° |
| 2026-04-26 12:58 | 51.64722 | 46.06365 | 443 ft | 19 kts | 299° |
| 2026-04-26 12:58 | 51.64774 | 46.06203 | 443 ft | 11 kts | 311° |
| 2026-04-26 12:59 | 51.64813 | 46.06184 | 443 ft | 0 kts | 17° |